Terminal Aerodrome Forecast
Issued by NWS El Paso, TX

Home | Current Version | Previous Version | Text Only | Print | Product List | Glossary On
Versions: 1 2 3 4 5 6 7 8 9 10 11 12 13 14
568
FTUS44 KEPZ 220529
TAFELP
TAF
KELP 220529Z 2206/2306 20007KT P6SM FEW100
     FM222000 23010G16KT P6SM SCT070 SCT120 SCT250
     FM230000 16010KT P6SM VCTS SCT050CB BKN100=

USA.gov is the U.S. government's official web portal to all federal, state and local government web resources and services.